Time;durP1;ratioP1;P1;durP2;ratioP2;P2;SDS_P1;SDS_P2;PMS_P1;PMS_P2;Temp;Humidity;BMP_temperature;BMP_pressure;BME280_temperature;BME280_humidity;BME280_pressure;Samples;Min_cycle;Max_cycle;Signal;HPM_P1;HPM_P2
2023/09/09 00:01:21;;;;;;;3.87;3.67;;;;;;;19.76;93.43;95611.13;4397376;32;20212;-66
2023/09/09 00:03:46;;;;;;;3.80;3.53;;;;;;;19.81;93.00;95610.87;4384662;32;20187;-66
2023/09/09 00:06:12;;;;;;;3.57;3.40;;;;;;;19.82;92.55;95608.97;4401079;32;20266;-67
2023/09/09 00:08:38;;;;;;;3.67;3.47;;;;;;;19.89;92.33;95609.16;4401879;32;20180;-67
2023/09/09 00:11:04;;;;;;;3.47;3.27;;;;;;;19.87;92.44;95609.50;4410318;32;20180;-66
2023/09/09 00:13:30;;;;;;;9.77;4.87;;;;;;;19.80;92.73;95616.59;4404347;32;20202;-67
2023/09/09 00:15:56;;;;;;;4.97;4.57;;;;;;;19.72;93.49;95614.84;4416283;32;20294;-66
2023/09/09 00:18:21;;;;;;;3.07;2.97;;;;;;;19.75;93.52;95619.53;4412325;32;20218;-66
2023/09/09 00:20:47;;;;;;;5.50;4.83;;;;;;;19.71;93.60;95614.06;4409045;32;20189;-67
2023/09/09 00:23:12;;;;;;;3.63;3.43;;;;;;;19.67;93.95;95615.09;4405090;32;20230;-67
2023/09/09 00:25:39;;;;;;;5.33;4.97;;;;;;;19.68;93.92;95611.28;4397145;32;20180;-66
2023/09/09 00:28:08;;;;;;;4.43;4.13;;;;;;;19.67;93.95;95607.81;4407610;32;20218;-66
2023/09/09 00:30:34;;;;;;;3.03;2.93;;;;;;;19.58;94.43;95606.38;4422389;32;20191;-66
2023/09/09 00:32:59;;;;;;;4.70;4.40;;;;;;;19.37;95.65;95606.53;4412080;32;20201;-66
2023/09/09 00:35:27;;;;;;;3.93;3.73;;;;;;;19.30;96.03;95599.06;4404781;32;20207;-67
2023/09/09 00:37:52;;;;;;;4.37;3.97;;;;;;;19.27;96.04;95602.44;4397255;32;20223;-66
2023/09/09 00:40:18;;;;;;;7.47;5.10;;;;;;;19.36;95.48;95604.97;4397071;32;20245;-66
2023/09/09 00:42:43;;;;;;;5.03;4.70;;;;;;;19.25;96.26;95601.22;4402085;32;20214;-66
2023/09/09 00:45:09;;;;;;;3.10;2.90;;;;;;;19.29;95.95;95599.41;4415564;32;20188;-67
2023/09/09 00:47:40;;;;;;;8.20;3.73;;;;;;;19.24;96.05;95597.75;4402855;32;20195;-66
2023/09/09 00:50:10;;;;;;;3.57;3.37;;;;;;;19.31;95.58;95597.97;4408154;32;20184;-67
2023/09/09 00:52:37;;;;;;;3.43;3.23;;;;;;;19.34;95.35;95599.16;4393818;32;20188;-66
2023/09/09 00:55:03;;;;;;;3.23;3.03;;;;;;;19.32;95.28;95591.44;4408511;32;20191;-66
2023/09/09 00:57:29;;;;;;;3.60;3.40;;;;;;;19.36;95.39;95602.28;4402922;32;20201;-66
2023/09/09 00:59:54;;;;;;;4.00;3.70;;;;;;;19.28;95.93;95603.22;4398078;32;20249;-66
2023/09/09 01:02:19;;;;;;;3.40;3.20;;;;;;;19.22;96.09;95600.00;4398010;32;20199;-66
2023/09/09 01:04:45;;;;;;;4.53;4.20;;;;;;;19.18;96.50;95597.19;4394655;32;20248;-66
2023/09/09 01:07:11;;;;;;;4.13;3.90;;;;;;;19.25;96.26;95591.25;4412220;32;20188;-66
2023/09/09 01:09:36;;;;;;;3.07;2.90;;;;;;;19.16;96.57;95596.75;4401037;32;20192;-67
2023/09/09 01:12:03;;;;;;;5.27;4.87;;;;;;;19.18;96.33;95591.81;4401673;32;20180;-66
2023/09/09 01:14:29;;;;;;;4.10;3.83;;;;;;;19.13;96.72;95583.97;4406109;32;20180;-66
2023/09/09 01:16:55;;;;;;;3.80;3.60;;;;;;;19.14;96.60;95590.94;4400248;32;20219;-66
2023/09/09 01:19:25;;;;;;;4.13;3.90;;;;;;;19.10;96.77;95590.06;4408317;32;20210;-66
2023/09/09 01:21:51;;;;;;;3.83;3.63;;;;;;;19.15;96.42;95591.72;4408537;32;20191;-66
2023/09/09 01:24:17;;;;;;;3.30;3.10;;;;;;;19.21;95.92;95584.97;4407374;32;20183;-66
2023/09/09 01:26:43;;;;;;;2.53;2.43;;;;;;;19.14;96.23;95588.22;4398753;32;20298;-66
2023/09/09 01:29:09;;;;;;;3.67;3.47;;;;;;;19.25;95.49;95585.06;4407823;32;20215;-67
2023/09/09 01:31:34;;;;;;;4.03;3.83;;;;;;;19.21;95.67;95583.06;4410283;32;20180;-66
2023/09/09 01:34:00;;;;;;;3.47;3.27;;;;;;;19.23;95.59;95577.34;4395693;32;20261;-66
2023/09/09 01:36:25;;;;;;;3.17;3.07;;;;;;;19.18;95.85;95583.75;4402549;32;20256;-66
2023/09/09 01:38:52;;;;;;;4.60;4.30;;;;;;;19.20;95.96;95588.78;4407877;32;20278;-66
2023/09/09 01:41:18;;;;;;;3.23;3.13;;;;;;;19.24;95.47;95586.97;4407799;32;20192;-66
2023/09/09 01:43:45;;;;;;;2.57;2.47;;;;;;;19.32;94.79;95590.66;4400803;32;20196;-66
2023/09/09 01:46:10;;;;;;;3.13;3.03;;;;;;;19.36;94.44;95583.44;4403060;32;20184;-67
2023/09/09 01:48:37;;;;;;;4.63;3.73;;;;;;;19.28;94.56;95584.41;4423454;32;20226;-68
2023/09/09 01:51:02;;;;;;;4.00;3.80;;;;;;;19.29;94.31;95588.66;4400564;32;20207;-66
2023/09/09 01:53:27;;;;;;;3.50;3.30;;;;;;;19.25;94.41;95585.06;4409111;32;20188;-66
2023/09/09 01:55:53;;;;;;;4.80;4.47;;;;;;;19.29;94.08;95580.59;4415444;32;20181;-66
2023/09/09 01:58:18;;;;;;;3.20;2.93;;;;;;;19.23;94.29;95583.50;4405582;32;20176;-66
2023/09/09 02:00:43;;;;;;;3.10;3.00;;;;;;;19.14;94.68;95582.84;4403793;32;20259;-66
2023/09/09 02:03:09;;;;;;;3.70;3.50;;;;;;;19.12;94.59;95582.41;4398260;32;20211;-66
2023/09/09 02:05:35;;;;;;;4.10;3.90;;;;;;;19.12;94.61;95587.78;4407544;32;20180;-66
2023/09/09 02:08:02;;;;;;;2.90;2.80;;;;;;;19.17;94.34;95584.88;4403352;32;20279;-66
2023/09/09 02:10:27;;;;;;;2.73;2.63;;;;;;;19.08;94.59;95581.56;4406209;32;20184;-66
2023/09/09 02:12:52;;;;;;;2.03;2.03;;;;;;;18.97;95.13;95583.13;4394174;32;20198;-66
2023/09/09 02:15:18;;;;;;;2.73;2.63;;;;;;;19.00;95.09;95579.78;4385950;32;20183;-66
2023/09/09 02:17:46;;;;;;;3.17;3.07;;;;;;;19.02;94.66;95579.44;4395607;32;20176;-66
2023/09/09 02:20:12;;;;;;;3.53;3.33;;;;;;;18.94;95.05;95575.75;4417030;32;20247;-66
2023/09/09 02:22:37;;;;;;;3.40;3.27;;;;;;;18.87;95.20;95576.34;4403027;32;20188;-67
2023/09/09 02:25:06;;;;;;;2.83;2.73;;;;;;;18.98;94.84;95582.00;4416787;32;20177;-66
2023/09/09 02:27:34;;;;;;;3.93;3.63;;;;;;;18.99;94.54;95578.19;4404738;32;20230;-66
2023/09/09 02:30:04;;;;;;;3.63;3.43;;;;;;;19.00;94.58;95579.78;4401931;32;20187;-66
2023/09/09 02:32:31;;;;;;;3.97;3.67;;;;;;;19.05;94.26;95576.84;4398983;32;20195;-66
2023/09/09 02:34:57;;;;;;;3.07;2.97;;;;;;;19.06;94.32;95580.31;4409568;32;25164;-66
2023/09/09 02:37:26;;;;;;;3.40;3.20;;;;;;;18.96;94.75;95584.25;4406931;32;20243;-66
2023/09/09 02:39:52;;;;;;;3.80;3.60;;;;;;;18.98;94.41;95584.69;4404420;32;20285;-66
2023/09/09 02:42:19;;;;;;;4.27;3.97;;;;;;;18.86;94.90;95579.38;4414297;32;20200;-66
2023/09/09 02:44:49;;;;;;;3.37;3.20;;;;;;;18.82;95.28;95578.47;4404187;32;20184;-66
2023/09/09 02:47:15;;;;;;;4.13;3.93;;;;;;;18.96;94.72;95578.09;4387953;32;20251;-66
2023/09/09 02:49:41;;;;;;;2.53;2.43;;;;;;;18.96;94.56;95576.19;4422763;32;20243;-67
2023/09/09 02:52:09;;;;;;;3.37;3.20;;;;;;;18.89;94.79;95578.69;4416264;32;20196;-66
2023/09/09 02:54:36;;;;;;;2.37;2.30;;;;;;;18.82;95.15;95583.84;4410025;32;20188;-66
2023/09/09 02:57:06;;;;;;;2.50;2.40;;;;;;;18.80;95.12;95586.09;4398865;32;20196;-67
2023/09/09 02:59:33;;;;;;;3.10;2.97;;;;;;;18.84;94.97;95578.91;4424350;32;20289;-66
2023/09/09 03:01:58;;;;;;;7.17;3.70;;;;;;;18.76;94.98;95580.59;4401522;32;20227;-66
2023/09/09 03:04:24;;;;;;;3.87;3.67;;;;;;;18.80;94.79;95586.09;4412675;32;20184;-66
2023/09/09 03:06:49;;;;;;;3.60;3.40;;;;;;;18.74;95.10;95571.31;4400979;32;20196;-66
2023/09/09 03:09:15;;;;;;;3.93;3.73;;;;;;;18.88;94.39;95574.44;4396774;32;20258;-66
2023/09/09 03:11:40;;;;;;;4.67;4.27;;;;;;;18.81;94.60;95580.37;4402375;32;20235;-66
2023/09/09 03:14:05;;;;;;;3.30;3.10;;;;;;;18.73;94.70;95575.91;4409305;32;20188;-66
2023/09/09 03:16:31;;;;;;;2.97;2.83;;;;;;;18.77;94.90;95576.00;4400125;32;20245;-66
2023/09/09 03:18:56;;;;;;;3.03;2.83;;;;;;;18.70;95.24;95581.97;4405132;32;20214;-66
2023/09/09 03:21:21;;;;;;;2.70;2.50;;;;;;;18.71;95.26;95574.66;4400610;32;20256;-66
2023/09/09 03:23:49;;;;;;;2.73;2.60;;;;;;;18.74;95.00;95579.38;4420512;32;20192;-66
2023/09/09 03:26:19;;;;;;;2.90;2.80;;;;;;;18.75;95.10;95572.87;4407349;32;20204;-66
2023/09/09 03:28:47;;;;;;;3.03;2.83;;;;;;;18.60;95.68;95577.03;4409714;32;20191;-66
2023/09/09 03:31:13;;;;;;;3.00;2.90;;;;;;;18.74;95.04;95576.69;4405561;32;20235;-66
2023/09/09 03:33:39;;;;;;;3.10;3.00;;;;;;;18.51;95.74;95585.19;4422970;32;20219;-67
2023/09/09 03:36:05;;;;;;;4.30;3.90;;;;;;;18.49;95.99;95571.31;4415703;32;20192;-66
2023/09/09 03:38:30;;;;;;;8.37;3.53;;;;;;;18.46;96.20;95573.91;4404452;32;20201;-66
2023/09/09 03:40:55;;;;;;;3.10;3.00;;;;;;;18.46;96.04;95579.28;4403824;32;20286;-66
2023/09/09 03:43:22;;;;;;;4.27;3.97;;;;;;;18.44;96.17;95576.94;4402269;32;20184;-66
2023/09/09 03:45:53;;;;;;;3.10;3.00;;;;;;;18.40;96.40;95578.72;4398477;32;20188;-66
2023/09/09 03:48:19;;;;;;;3.47;3.27;;;;;;;18.43;96.33;95580.72;4400609;32;20192;-67
2023/09/09 03:50:44;;;;;;;2.87;2.77;;;;;;;18.54;95.94;95589.88;4402366;32;20214;-67
2023/09/09 03:53:11;;;;;;;2.63;2.53;;;;;;;18.53;95.82;95577.56;4409108;32;20205;-67
2023/09/09 03:55:36;;;;;;;4.47;3.20;;;;;;;18.69;95.20;95577.72;4387719;32;20196;-68
2023/09/09 03:58:01;;;;;;;3.13;3.03;;;;;;;18.67;95.27;95579.97;4416067;32;20218;-67
2023/09/09 04:00:26;;;;;;;4.33;4.03;;;;;;;18.74;95.20;95582.06;4404137;32;20203;-67
2023/09/09 04:02:52;;;;;;;4.53;4.00;;;;;;;18.76;95.04;95585.19;4398623;32;20231;-67
2023/09/09 04:05:18;;;;;;;3.47;3.27;;;;;;;18.68;95.68;95583.44;4407185;32;20240;-67
2023/09/09 04:07:44;;;;;;;3.27;3.07;;;;;;;18.82;94.95;95573.88;4403843;32;20210;-68
2023/09/09 04:10:10;;;;;;;2.03;1.93;;;;;;;18.78;95.23;95580.25;4404507;32;20200;-69
2023/09/09 04:12:36;;;;;;;2.47;2.37;;;;;;;18.55;96.25;95590.66;4398873;32;20196;-67
2023/09/09 04:15:02;;;;;;;7.40;2.80;;;;;;;18.59;95.97;95580.03;4409342;32;20207;-67
2023/09/09 04:17:28;;;;;;;3.37;3.17;;;;;;;18.72;95.61;95578.91;4403339;32;20247;-67
2023/09/09 04:19:53;;;;;;;2.57;2.47;;;;;;;18.66;95.76;95577.59;4400791;32;20203;-67
2023/09/09 04:22:18;;;;;;;3.53;3.40;;;;;;;18.63;96.30;95586.34;4428641;32;20191;-67
2023/09/09 04:24:43;;;;;;;3.87;3.67;;;;;;;18.71;95.86;95588.87;4398499;32;20201;-67
2023/09/09 04:27:09;;;;;;;2.83;2.73;;;;;;;18.89;94.91;95586.75;4410158;32;20227;-67
2023/09/09 04:29:34;;;;;;;3.10;3.00;;;;;;;18.77;95.53;95590.22;4401340;32;20196;-67
2023/09/09 04:32:01;;;;;;;3.17;2.57;;;;;;;18.74;95.64;95590.91;4401028;32;20259;-67
2023/09/09 04:34:27;;;;;;;4.17;3.87;;;;;;;18.91;94.62;95592.59;4396607;32;20309;-67
2023/09/09 04:36:52;;;;;;;3.70;3.37;;;;;;;18.96;94.18;95594.22;4404804;32;20195;-67
2023/09/09 04:39:18;;;;;;;2.53;2.43;;;;;;;18.90;94.65;95598.28;4409063;32;20179;-67
2023/09/09 04:41:43;;;;;;;3.00;2.80;;;;;;;18.95;93.91;95590.75;4398122;32;20235;-67
2023/09/09 04:44:09;;;;;;;3.60;3.20;;;;;;;18.77;94.71;95597.50;4405916;32;20188;-67
2023/09/09 04:46:34;;;;;;;2.87;2.67;;;;;;;18.63;95.51;95597.09;4419005;32;20183;-67
2023/09/09 04:49:00;;;;;;;2.80;2.70;;;;;;;18.74;94.96;95592.81;4407203;32;20249;-67
2023/09/09 04:51:25;;;;;;;3.47;3.27;;;;;;;18.75;95.02;95597.06;4416408;32;20196;-67
2023/09/09 04:53:50;;;;;;;2.90;2.70;;;;;;;18.70;95.11;95600.00;4397137;32;20188;-67
2023/09/09 04:56:16;;;;;;;2.60;2.50;;;;;;;18.71;95.15;95605.00;4416775;32;20319;-67
2023/09/09 04:58:41;;;;;;;3.47;3.23;;;;;;;18.67;95.22;95604.16;4394289;32;20259;-67
2023/09/09 05:01:07;;;;;;;3.47;3.07;;;;;;;18.51;95.65;95606.69;4411581;32;20199;-68
2023/09/09 05:03:33;;;;;;;3.50;3.33;;;;;;;18.62;95.44;95601.69;4402237;32;20206;-67
2023/09/09 05:05:59;;;;;;;3.03;2.93;;;;;;;18.53;95.40;95599.06;4405965;32;20233;-67
2023/09/09 05:08:24;;;;;;;2.40;2.30;;;;;;;18.49;95.25;95606.25;4408202;32;20196;-67
2023/09/09 05:10:51;;;;;;;2.53;2.43;;;;;;;18.48;95.16;95603.91;4408256;32;20227;-67
2023/09/09 05:13:16;;;;;;;2.80;2.70;;;;;;;18.44;95.43;95609.16;4405424;32;20260;-67
2023/09/09 05:15:41;;;;;;;2.57;2.47;;;;;;;18.40;95.60;95610.16;4407341;32;20214;-67
2023/09/09 05:18:06;;;;;;;4.03;3.70;;;;;;;18.43;95.55;95607.59;4410823;32;20192;-68
2023/09/09 05:20:33;;;;;;;3.77;3.53;;;;;;;18.43;95.50;95612.97;4404857;32;20243;-67
2023/09/09 05:22:58;;;;;;;3.60;3.10;;;;;;;18.46;95.44;95623.06;4414374;32;20278;-67
2023/09/09 05:25:25;;;;;;;4.00;3.27;;;;;;;18.42;95.58;95618.69;4405930;32;20222;-67
2023/09/09 05:27:52;;;;;;;2.10;2.00;;;;;;;18.41;95.70;95614.41;4401183;32;20197;-67
2023/09/09 05:30:17;;;;;;;3.03;2.83;;;;;;;18.60;95.17;95622.72;4396078;32;20214;-67
2023/09/09 05:32:44;;;;;;;3.40;3.20;;;;;;;18.62;95.19;95622.41;4394498;32;20263;-67
2023/09/09 05:35:11;;;;;;;2.67;2.57;;;;;;;18.51;95.62;95622.03;4409110;32;20232;-67
2023/09/09 05:37:36;;;;;;;3.00;2.90;;;;;;;18.49;95.88;95626.97;4394930;32;20204;-67
2023/09/09 05:40:02;;;;;;;3.53;3.33;;;;;;;18.58;95.54;95624.16;4402388;32;20188;-67
2023/09/09 05:42:28;;;;;;;3.60;3.40;;;;;;;18.66;95.10;95632.16;4404206;32;20275;-67
2023/09/09 05:44:54;;;;;;;2.33;2.23;;;;;;;18.72;94.87;95633.47;4410036;32;20335;-67
2023/09/09 05:47:20;;;;;;;2.43;2.33;;;;;;;18.78;94.35;95624.06;4408445;32;20201;-67
2023/09/09 05:49:45;;;;;;;2.77;2.67;;;;;;;18.92;93.97;95629.06;4401602;32;20210;-67
2023/09/09 05:52:12;;;;;;;3.80;3.60;;;;;;;18.85;94.75;95628.88;4400598;32;20206;-68
2023/09/09 05:54:38;;;;;;;3.90;3.70;;;;;;;18.92;94.48;95637.12;4411197;32;20175;-68
2023/09/09 05:57:03;;;;;;;3.20;3.00;;;;;;;19.00;94.19;95636.25;4407504;32;20207;-67
2023/09/09 05:59:30;;;;;;;3.20;3.00;;;;;;;18.94;94.50;95637.59;4410038;32;20188;-67
2023/09/09 06:01:56;;;;;;;2.30;2.20;;;;;;;19.07;94.04;95638.38;4407446;32;20241;-67
2023/09/09 06:04:23;;;;;;;3.73;3.53;;;;;;;19.11;94.01;95640.03;4413293;32;20183;-67
2023/09/09 06:06:50;;;;;;;3.20;3.10;;;;;;;19.04;94.37;95639.81;4405645;32;20305;-67
2023/09/09 06:09:15;;;;;;;3.47;3.23;;;;;;;18.99;94.85;95631.97;4399451;32;20224;-67
2023/09/09 06:11:41;;;;;;;2.60;2.50;;;;;;;18.99;95.10;95639.25;4413014;32;20227;-67
2023/09/09 06:14:06;;;;;;;3.07;2.90;;;;;;;18.99;95.21;95637.38;4401924;32;20206;-69
2023/09/09 06:16:32;;;;;;;2.80;2.70;;;;;;;19.08;95.27;95637.25;4402682;32;20188;-67
2023/09/09 06:18:57;;;;;;;2.73;2.63;;;;;;;19.12;95.28;95630.06;4399062;32;20184;-67
2023/09/09 06:21:24;;;;;;;2.97;2.67;;;;;;;19.12;95.72;95638.12;4403900;32;20231;-68
2023/09/09 06:23:49;;;;;;;3.77;3.43;;;;;;;19.14;95.90;95643.94;4400537;32;20244;-67
2023/09/09 06:26:14;;;;;;;4.10;3.80;;;;;;;19.09;96.30;95636.91;4416101;32;20274;-67
2023/09/09 06:28:40;;;;;;;3.23;3.03;;;;;;;19.13;95.81;95637.78;4409935;32;20200;-67
2023/09/09 06:31:05;;;;;;;4.13;3.73;;;;;;;19.15;96.35;95643.59;4408788;32;20184;-67
2023/09/09 06:33:30;;;;;;;4.10;3.80;;;;;;;19.23;95.93;95642.69;4400658;32;20200;-67
2023/09/09 06:35:55;;;;;;;3.50;3.33;;;;;;;19.27;96.58;95642.03;4403010;32;20265;-67
2023/09/09 06:38:21;;;;;;;2.97;2.77;;;;;;;19.30;96.69;95639.44;4390486;32;20224;-68
2023/09/09 06:40:47;;;;;;;3.90;3.70;;;;;;;19.30;96.35;95646.72;4415936;32;20188;-67
2023/09/09 06:43:18;;;;;;;3.60;3.40;;;;;;;19.36;95.91;95643.44;4411608;32;20180;-67
2023/09/09 06:45:44;;;;;;;3.77;3.57;;;;;;;19.37;96.29;95649.59;4407389;32;20297;-67
2023/09/09 06:48:09;;;;;;;4.27;3.87;;;;;;;19.40;96.53;95657.78;4402400;32;20200;-67
2023/09/09 06:50:34;;;;;;;3.30;3.13;;;;;;;19.44;96.39;95652.50;4399327;32;20252;-68
2023/09/09 06:52:59;;;;;;;3.23;3.03;;;;;;;19.45;96.37;95654.06;4411662;32;20236;-67
2023/09/09 06:55:26;;;;;;;3.80;3.50;;;;;;;19.54;96.62;95657.41;4402435;32;20200;-67
2023/09/09 06:57:51;;;;;;;5.33;3.60;;;;;;;19.59;96.56;95657.19;4410477;32;20188;-67
2023/09/09 07:00:16;;;;;;;3.23;3.03;;;;;;;19.66;95.94;95665.47;4397853;32;20261;-67
2023/09/09 07:02:42;;;;;;;3.00;2.90;;;;;;;19.68;96.33;95662.44;4408644;32;20221;-67
2023/09/09 07:05:07;;;;;;;3.40;3.20;;;;;;;19.70;96.55;95660.19;4407209;32;20196;-68
2023/09/09 07:07:33;;;;;;;3.20;3.00;;;;;;;19.71;96.50;95662.53;4388924;32;20200;-67
2023/09/09 07:09:58;;;;;;;3.43;3.27;;;;;;;19.76;96.23;95659.56;4403759;32;20206;-67
2023/09/09 07:12:24;;;;;;;3.93;3.73;;;;;;;19.85;96.07;95668.31;4410184;32;20235;-67
2023/09/09 07:14:49;;;;;;;4.90;4.60;;;;;;;19.84;96.11;95672.13;4416992;32;20234;-67
2023/09/09 07:17:14;;;;;;;5.73;5.23;;;;;;;19.90;96.19;95670.75;4406854;32;20179;-67
2023/09/09 07:19:40;;;;;;;3.90;3.70;;;;;;;19.96;95.99;95668.56;4408308;32;20196;-67
2023/09/09 07:22:06;;;;;;;4.60;4.20;;;;;;;19.96;95.65;95670.47;4393957;32;20192;-67
2023/09/09 07:24:31;;;;;;;3.67;3.47;;;;;;;19.98;95.53;95668.22;4408859;32;20217;-67
2023/09/09 07:26:59;;;;;;;3.03;2.93;;;;;;;20.01;95.60;95667.53;4394632;32;20298;-67
2023/09/09 07:29:27;;;;;;;4.27;4.07;;;;;;;20.07;95.84;95666.19;4406421;32;20206;-67
2023/09/09 07:31:52;;;;;;;3.67;3.47;;;;;;;20.08;96.32;95665.84;4396659;32;20248;-67
2023/09/09 07:34:19;;;;;;;3.80;3.60;;;;;;;20.13;96.18;95662.09;4409427;32;20243;-67
2023/09/09 07:36:45;;;;;;;3.87;3.67;;;;;;;20.19;96.46;95666.88;4404351;32;20285;-67
2023/09/09 07:39:10;;;;;;;4.13;3.93;;;;;;;20.25;96.33;95665.50;4406859;32;20196;-67
2023/09/09 07:41:36;;;;;;;3.87;3.57;;;;;;;20.34;96.42;95662.66;4397570;32;20198;-67
2023/09/09 07:44:01;;;;;;;3.43;3.23;;;;;;;20.41;96.33;95662.84;4403552;32;20203;-67
2023/09/09 07:46:28;;;;;;;5.10;4.57;;;;;;;20.47;96.09;95666.84;4418171;32;20274;-67
2023/09/09 07:48:53;;;;;;;3.97;3.70;;;;;;;20.56;95.82;95669.38;4407895;32;20195;-67
2023/09/09 07:51:20;;;;;;;4.40;4.20;;;;;;;20.55;96.34;95663.22;4398860;32;20199;-67
2023/09/09 07:53:48;;;;;;;15.03;4.77;;;;;;;20.55;95.94;95668.59;4402369;32;20216;-68
2023/09/09 07:56:15;;;;;;;4.77;4.47;;;;;;;20.64;95.84;95673.03;4396913;32;20252;-67
2023/09/09 07:58:40;;;;;;;5.17;4.87;;;;;;;20.79;95.85;95669.53;4407902;32;20206;-68
2023/09/09 08:01:07;;;;;;;4.07;3.87;;;;;;;20.81;96.07;95678.03;4401255;32;20184;-67
2023/09/09 08:03:34;;;;;;;2.80;2.70;;;;;;;20.84;95.76;95674.66;4397293;32;20197;-67
2023/09/09 08:06:06;;;;;;;4.03;3.83;;;;;;;20.87;95.37;95674.75;4404352;32;20214;-67
2023/09/09 08:08:33;;;;;;;4.77;4.53;;;;;;;20.97;95.78;95681.53;4402512;32;20172;-67
2023/09/09 08:10:58;;;;;;;5.17;4.77;;;;;;;20.98;95.32;95672.31;4398903;32;20180;-67
2023/09/09 08:13:25;;;;;;;5.13;4.57;;;;;;;21.05;95.57;95675.16;4398642;32;20299;-67
2023/09/09 08:15:50;;;;;;;4.50;4.27;;;;;;;21.12;95.59;95675.31;4415617;32;20195;-67
2023/09/09 08:18:15;;;;;;;5.30;4.67;;;;;;;21.14;95.82;95670.34;4397368;32;20184;-67
2023/09/09 08:20:41;;;;;;;3.80;3.53;;;;;;;21.16;95.82;95673.47;4393657;32;20223;-67
2023/09/09 08:23:07;;;;;;;4.57;4.37;;;;;;;21.27;95.45;95679.91;4391107;32;20193;-69
2023/09/09 08:25:33;;;;;;;3.23;3.13;;;;;;;21.34;95.33;95679.28;4410008;32;20206;-67
2023/09/09 08:28:01;;;;;;;3.67;3.57;;;;;;;21.38;95.36;95685.56;4405142;32;20184;-67
2023/09/09 08:30:27;;;;;;;3.80;3.60;;;;;;;21.41;95.42;95684.81;4398466;32;20282;-67
2023/09/09 08:32:53;;;;;;;4.83;4.63;;;;;;;21.45;95.20;95679.50;4407977;32;20195;-67
2023/09/09 08:35:18;;;;;;;4.03;3.77;;;;;;;21.61;95.06;95674.84;4398331;32;20206;-67
2023/09/09 08:37:43;;;;;;;3.90;3.70;;;;;;;21.64;93.71;95684.12;4413353;32;20230;-67
2023/09/09 08:40:10;;;;;;;4.87;4.57;;;;;;;21.68;94.29;95680.37;4414204;32;20315;-68
2023/09/09 08:42:39;;;;;;;3.90;3.70;;;;;;;21.84;93.77;95681.06;4404279;32;20200;-67
2023/09/09 08:45:12;;;;;;;6.03;3.40;;;;;;;21.93;93.45;95681.66;4402849;32;20184;-67
2023/09/09 08:47:42;;;;;;;4.13;3.87;;;;;;;21.99;93.04;95678.66;4397903;32;20208;-68
2023/09/09 08:50:09;;;;;;;3.83;3.63;;;;;;;22.01;93.12;95684.53;4392865;32;20218;-68
2023/09/09 08:52:35;;;;;;;3.27;3.17;;;;;;;22.05;92.67;95677.25;4404734;32;20180;-67
2023/09/09 08:55:01;;;;;;;4.77;4.50;;;;;;;22.03;92.49;95679.56;4403959;32;20204;-64
2023/09/09 08:57:27;;;;;;;3.83;3.63;;;;;;;22.24;91.89;95685.31;4399047;32;20253;-67
2023/09/09 08:59:53;;;;;;;4.07;3.87;;;;;;;22.27;91.79;95680.00;4410571;32;20184;-67
2023/09/09 09:02:18;;;;;;;3.50;3.20;;;;;;;22.27;91.78;95690.81;4402189;32;20188;-67
2023/09/09 09:04:45;;;;;;;4.47;4.27;;;;;;;22.33;91.63;95694.00;4396605;32;20245;-67
2023/09/09 09:07:12;;;;;;;2.93;2.83;;;;;;;22.34;91.46;95692.06;4404098;32;20187;-67
2023/09/09 09:09:37;;;;;;;3.37;3.23;;;;;;;22.31;91.28;95690.09;4397468;32;20188;-67
2023/09/09 09:12:03;;;;;;;4.20;3.97;;;;;;;22.42;90.41;95686.44;4408410;32;20214;-67
2023/09/09 09:14:29;;;;;;;4.30;3.97;;;;;;;22.57;88.82;95693.66;4390128;32;20188;-67
2023/09/09 09:16:55;;;;;;;4.07;3.60;;;;;;;22.55;88.53;95685.13;4394815;32;20192;-67
2023/09/09 09:19:30;;;;;;;4.67;4.37;;;;;;;22.77;88.34;95680.88;4400258;32;20255;-67
2023/09/09 09:21:56;;;;;;;4.27;4.07;;;;;;;22.75;88.20;95685.81;4400172;32;20196;-67
2023/09/09 09:24:24;;;;;;;4.10;3.90;;;;;;;22.88;88.02;95686.44;4426517;32;20244;-67
2023/09/09 09:26:49;;;;;;;3.50;3.30;;;;;;;22.83;88.42;95687.53;4396563;32;20232;-67
2023/09/09 09:29:15;;;;;;;3.70;3.50;;;;;;;22.78;87.93;95690.53;4404189;32;20248;-67
2023/09/09 09:31:40;;;;;;;7.43;6.80;;;;;;;22.76;87.49;95689.31;4398249;32;20255;-67
2023/09/09 09:34:08;;;;;;;4.00;3.77;;;;;;;22.80;87.43;95684.78;4406358;32;20207;-67
2023/09/09 09:36:34;;;;;;;11.57;10.47;;;;;;;22.91;86.44;95683.00;4392694;32;20192;-67
2023/09/09 09:39:10;;;;;;;6.37;5.87;;;;;;;22.94;86.86;95679.56;4398065;32;20220;-67
2023/09/09 09:41:39;;;;;;;3.90;3.63;;;;;;;23.07;86.47;95683.62;4408050;32;20233;-67
2023/09/09 09:44:17;;;;;;;2.90;2.80;;;;;;;23.07;85.95;95672.81;4399429;32;20206;-67
2023/09/09 09:46:42;;;;;;;5.00;4.70;;;;;;;23.17;85.58;95674.91;4418221;32;20187;-67
2023/09/09 09:49:10;;;;;;;4.43;4.23;;;;;;;23.26;85.94;95675.44;4398690;32;20206;-67
2023/09/09 09:51:43;;;;;;;4.10;3.90;;;;;;;23.24;85.65;95672.31;4411884;32;20196;-67
2023/09/09 09:54:09;;;;;;;4.47;4.17;;;;;;;23.29;85.27;95669.25;4392645;32;20239;-67
2023/09/09 09:56:38;;;;;;;3.77;3.57;;;;;;;23.26;86.01;95674.66;4417671;32;20188;-67
2023/09/09 09:59:05;;;;;;;9.73;8.87;;;;;;;23.34;85.19;95678.22;4410695;32;20183;-67
2023/09/09 10:01:30;;;;;;;14.27;8.40;;;;;;;23.52;84.62;95673.84;4413853;32;20227;-67
2023/09/09 10:04:04;;;;;;;4.27;3.97;;;;;;;23.50;84.65;95674.16;4422279;32;20232;-67
2023/09/09 10:06:33;;;;;;;5.00;4.50;;;;;;;23.66;83.72;95673.25;4403320;32;20206;-67
2023/09/09 10:09:30;;;;;;;3.50;3.30;;;;;;;23.67;83.72;95678.31;4405587;32;20209;-67
2023/09/09 10:12:06;;;;;;;3.00;2.90;;;;;;;23.73;84.10;95676.81;4400031;32;20235;-67
2023/09/09 10:14:36;;;;;;;3.27;3.07;;;;;;;23.79;82.73;95667.22;4402834;32;20192;-67
2023/09/09 10:17:06;;;;;;;3.63;3.47;;;;;;;23.74;83.08;95669.47;4412226;32;20208;-67
2023/09/09 10:19:34;;;;;;;3.67;3.47;;;;;;;23.81;83.07;95664.91;4407621;32;20188;-67
2023/09/09 10:22:01;;;;;;;3.10;2.93;;;;;;;24.04;81.91;95664.00;4405579;32;20195;-67
2023/09/09 10:24:28;;;;;;;2.87;2.77;;;;;;;24.12;81.38;95665.63;4402078;32;20188;-67
2023/09/09 10:26:55;;;;;;;2.97;2.87;;;;;;;24.17;81.24;95665.31;4401193;32;20196;-67
2023/09/09 10:29:22;;;;;;;3.10;2.90;;;;;;;24.22;81.37;95664.97;4395321;32;20184;-67
2023/09/09 10:31:50;;;;;;;3.47;3.20;;;;;;;24.29;81.31;95665.88;4400499;32;20229;-67
2023/09/09 10:34:17;;;;;;;3.50;3.30;;;;;;;24.34;80.33;95659.28;4401371;32;20195;-67
2023/09/09 10:36:44;;;;;;;3.40;3.20;;;;;;;24.28;80.93;95666.22;4402864;32;20192;-67
2023/09/09 10:39:13;;;;;;;2.87;2.67;;;;;;;24.43;79.75;95662.50;4406630;32;20225;-67
2023/09/09 10:41:40;;;;;;;3.30;3.10;;;;;;;24.40;80.13;95659.75;4398788;32;20180;-68
2023/09/09 10:44:05;;;;;;;4.17;3.87;;;;;;;24.49;79.11;95658.28;4407922;32;20215;-67
2023/09/09 10:46:33;;;;;;;3.70;3.50;;;;;;;24.50;79.26;95659.84;4400324;32;20242;-67
2023/09/09 10:49:03;;;;;;;3.77;3.47;;;;;;;24.52;79.67;95654.84;4393248;32;20267;-67
2023/09/09 10:51:29;;;;;;;3.40;3.30;;;;;;;24.51;79.15;95649.78;4398442;32;20188;-67
2023/09/09 10:54:08;;;;;;;3.10;2.90;;;;;;;24.55;79.49;95659.50;4393627;32;20224;-67
2023/09/09 10:56:34;;;;;;;2.60;2.30;;;;;;;24.52;79.48;95657.56;4405617;32;20244;-67
2023/09/09 10:59:15;;;;;;;2.30;2.20;;;;;;;24.47;79.81;95649.75;4400433;32;20199;-67
2023/09/09 11:01:40;;;;;;;3.93;3.43;;;;;;;24.43;79.51;95653.56;4403117;32;20240;-67
2023/09/09 11:04:17;;;;;;;3.23;3.00;;;;;;;24.40;80.08;95652.38;4406052;32;20216;-67
2023/09/09 11:06:58;;;;;;;2.80;2.70;;;;;;;24.43;79.91;95650.88;4404373;32;20195;-67
2023/09/09 11:09:29;;;;;;;3.30;3.20;;;;;;;24.45;79.85;95646.63;4408276;32;20214;-67
2023/09/09 11:11:55;;;;;;;3.03;2.93;;;;;;;24.35;79.55;95647.28;4407220;32;20192;-67
2023/09/09 11:14:21;;;;;;;2.93;2.73;;;;;;;24.32;79.70;95648.03;4395280;32;20259;-67
2023/09/09 11:16:54;;;;;;;3.83;3.63;;;;;;;24.27;79.93;95651.88;4402277;32;20197;-67
2023/09/09 11:19:23;;;;;;;3.00;2.80;;;;;;;24.36;78.78;95643.44;4399159;32;20191;-67
2023/09/09 11:21:53;;;;;;;2.70;2.60;;;;;;;24.42;78.38;95655.50;4406435;32;20215;-67
2023/09/09 11:24:21;;;;;;;3.23;3.03;;;;;;;24.28;78.80;95648.03;4407655;32;20181;-67
2023/09/09 11:26:49;;;;;;;3.60;3.33;;;;;;;24.50;77.89;95648.22;4405337;32;20202;-67
2023/09/09 11:29:16;;;;;;;2.80;2.70;;;;;;;24.60;77.97;95651.00;4407754;32;20341;-67
2023/09/09 11:31:42;;;;;;;3.07;2.87;;;;;;;24.69;78.14;95644.50;4409395;32;20226;-67